KBVO/BVO METAR and TAF weather

Enter ICAO airport designator
Station Type Date Time Source
KBVO METAR 2021/06/24 04:53 UTC NOAA

KBVO 240453Z AUTO 18006KT 10SM CLR 27/23 A2992 RMK AO2 SLP119 T02670228


Station Type Date Time Source
KBVO Decoded METAR 2021/06/24 04:53 UTC NOAA

BARTLESVILLE MUNICIPAL AIRPORT , OK, United States (KBVO) 36-46N 96-01W 210M
Jun 24, 2021 - 12:53 AM EDT / 2021.06.24 0453 UTC
Wind: from the S (180 degrees) at 7 MPH (6 KT):0
Visibility: 10 mile(s):0
Sky conditions: clear
Temperature: 80.1 F (26.7 C)
Dew Point: 73.0 F (22.8 C)
Relative Humidity: 79%
Pressure (altimeter): 29.92 in. Hg (1013 hPa)
ob: KBVO 240453Z AUTO 18006KT 10SM CLR 27/23 A2992 RMK AO2 SLP119 T02670228
cycle: 5

Station Type Date Time Source
KBVO TAF 2021/06/24 06:30 UTC NOAA

TAF KBVO 240527Z 2406/2506 17006KT P6SM FEW250
FM240800 17008KT P6SM SCT035 SCT250 WS020/19040KT
FM241400 18012G25KT P6SM FEW040

Example: see airport list